BLOG

LUXURY FLIGHT

080-7560-1817

羽田空港本店: 所在地: 東京都大田区羽田空港3-3-2    セントレア店: 所在地: 愛知県常滑市セントレア1-1      HICityファイター店: 所在地: 東京都大田区羽田空港1-1-4
           第1旅客ターミナル5階                  FLIGHT OF DREAMS FLIGHT PARK                 HANEDA INNOVATION CITY ZONE-J 2-5
      営業時間: 10:00~20:00 定休日: 年中無休         営業時間: 10:00~20:00 定休日: 年中無休             営業時間: 10:00~20:00 定休日: 年中無休
      電話番号: 080-7560-1817                  電話番号: 080-4945-5666                     電話番号: 03-5579-7980

lv

BLOG

ph

BLOG

2021年7月17日(男子編)AIR DOオリジナルグッズ、面白いもの揃ってます!

  こんにちはーーーーー   どうやら梅雨が明けたようで、羽田はモクモクとした雲がありつつも、 いい感じの日差しが降り注いでおります。         RJTT 1622...

2021年7月3日チャーリー古庄さんサイン入り 新作本発売開始ーーー!!

こんにちはーーーーーーー     本日の羽田周辺METARは…   RJTT 030230Z 01008KT 8000 -SHRA FEW004 BKN007 BKN040 23/22 Q1009 NOSIG RMK 1ST...

2021年6月26日スターフライヤー グッズ取り扱い開始!!そしてキャンペーンも!!!

こんにちわ~~~~~ そしてお久しぶりで~~~~~す!!!!   長らく更新しておらず、申し訳ありませんでした     今日の羽田のMETARは…   RJTT 260100Z 08004KT 9999 FEW...

2021年4月1日あっ!昨日…

  羽田空港本店の、記念すべき1周年の日が…     まさかの昨日でした。笑     しかも、代表も私も、「忙しい」フリをして全くアタマの片隅にもなく…     お客様か...

2021年3月24日埼玉時代を知る、数少ないお客さま

こんにちはーーーーー   今日も平日ながら、多くのお客様にご来店いただいている今日この頃。 本当にありがとうございます。     現況のMETARは…   RJTT 240430Z 19015KT 9999 FE...

2021年3月23日春はあけぼのーーーーーーーー

ラグフラを愛してくださる全ての方へ   みなさま、お久しゅうございます。   緊急事態宣言が明けた今日この頃、医療関係者の方々の大変なご苦労を考えると、 決して手放しで喜べる状況ではございませんが、   感染防止対策を最大限実施...

2021年1月14日ココは誰もが子供に還れる場所

羽田空港本店からこんにちはーーー     本日もいい冬晴れです。   羽田のMETARは… RJTT 140200Z 17006KT 140V200 9999 FEW030 11/02 Q1016 NOSIG RMK 1CU0...

2021年1月6日初日の出フライト@中部

中部よりこんにちはーーーーー!! 2021年の三が日、皆様いかがお過ごしになられたでしょうか。   今日の中部は、 RJGG 060130Z 26009KT 9999 FEW020 BKN050 07/M01 Q1016 BECMG 28010KT  ...

2021年1月4日スカイマークにLUXURY FLIGHT JET 🌸

いつも弊社サービスをご利用いただきまして、誠にありがとうございます   本日も羽田空港は良い天気には恵まれておりますが、感染症拡大においては   歯止めがかかる事なく、雲行きが怪しくなって参りました。   仕方がないとはいえ、非常に辛...

2021年1月2日改めましておめでとうございます!!新年はじめは🌸JA73AA🌸

改めまして明けましておめでとうございます   おめでとうとはとは言いましても、暗いニュースが多い新年で   厳しい幕開けとなりました・・・   弊社も本当に厳しい状況ではありますが・・・   やはり新年最初のブロ...

TOP